createdAt,value
2023-01-12T00:01:08.197Z,99884.28
2023-01-12T00:03:34.566Z,99886.34
2023-01-12T00:06:01.248Z,99876.91
2023-01-12T00:08:27.627Z,99872.91
2023-01-12T00:10:57.150Z,99880.38
2023-01-12T00:13:23.515Z,99872.19
2023-01-12T00:16:08.778Z,99874.38
2023-01-12T00:18:35.214Z,99873.44
2023-01-12T00:21:01.566Z,99875.38
2023-01-12T00:23:29.233Z,99879.38
2023-01-12T00:25:55.627Z,99882.47
2023-01-12T00:28:22.049Z,99872.63
2023-01-12T00:30:48.444Z,99869.03
2023-01-12T00:33:14.836Z,99875.69
2023-01-12T00:35:41.198Z,99865.69
2023-01-12T00:38:07.576Z,99863.50
2023-01-12T00:40:36.337Z,99848.47
2023-01-12T00:43:21.913Z,99848.47
2023-01-12T00:45:51.390Z,99844.47
2023-01-12T00:48:17.797Z,99851.53
2023-01-12T00:50:46.304Z,99848.75
2023-01-12T00:53:13.378Z,99854.03
2023-01-12T00:55:39.797Z,99849.19
2023-01-12T00:58:06.199Z,99836.84
2023-01-12T01:00:32.571Z,99837.81
2023-01-12T01:02:58.966Z,99836.00
2023-01-12T01:05:25.364Z,99846.28
2023-01-12T01:07:51.702Z,99830.44
2023-01-12T01:10:18.230Z,99843.91
2023-01-12T01:12:44.647Z,99844.59
2023-01-12T01:15:11.219Z,99847.53
2023-01-12T01:17:37.581Z,99843.19
2023-01-12T01:20:04.723Z,99859.47
2023-01-12T01:22:31.050Z,99853.09
2023-01-12T01:24:57.422Z,99846.81
2023-01-12T01:27:23.851Z,99846.53
2023-01-12T01:29:50.206Z,99844.34
2023-01-12T01:32:16.589Z,99844.16
2023-01-12T01:34:43.139Z,99823.19
2023-01-12T01:37:09.652Z,99821.97
2023-01-12T01:39:35.995Z,99839.88
2023-01-12T01:42:02.373Z,99839.59
2023-01-12T01:44:31.675Z,99835.69
2023-01-12T01:47:00.842Z,99839.59
2023-01-12T01:49:41.568Z,99844.84
2023-01-12T01:52:24.427Z,99833.75
2023-01-12T01:54:55.682Z,99844.44
2023-01-12T01:57:26.435Z,99836.00
2023-01-12T01:59:56.679Z,99824.59
2023-01-12T02:02:25.429Z,99844.84
2023-01-12T02:04:54.238Z,99849.19
2023-01-12T02:07:20.695Z,99853.19
2023-01-12T02:09:47.045Z,99868.22
2023-01-12T02:12:32.985Z,99873.91
2023-01-12T02:15:18.291Z,99874.59
2023-01-12T02:18:10.486Z,99881.53
2023-01-12T02:21:00.700Z,99878.22
2023-01-12T02:23:57.707Z,99872.94
2023-01-12T02:26:50.988Z,99869.47
2023-01-12T02:29:40.110Z,99879.72
2023-01-12T02:32:18.103Z,99854.59
2023-01-12T02:34:55.038Z,99853.09
2023-01-12T02:37:43.388Z,99852.81
2023-01-12T02:40:21.458Z,99846.81
2023-01-12T02:43:04.281Z,99844.88
2023-01-12T02:45:39.811Z,99844.59
2023-01-12T02:48:15.146Z,99825.44
2023-01-12T02:51:05.712Z,99831.13
2023-01-12T02:53:52.149Z,99836.84
2023-01-12T02:56:24.223Z,99824.88
2023-01-12T02:58:58.316Z,99815.31
2023-01-12T03:01:27.187Z,99824.75
2023-01-12T03:04:00.405Z,99832.94
2023-01-12T03:06:38.705Z,99836.28
2023-01-12T03:09:05.123Z,99840.97
2023-01-12T03:11:31.615Z,99835.72
2023-01-12T03:14:02.550Z,99838.63
2023-01-12T03:16:33.451Z,99838.50
2023-01-12T03:19:09.320Z,99828.78
2023-01-12T03:21:40.147Z,99827.38
2023-01-12T03:24:11.005Z,99827.38
2023-01-12T03:26:41.921Z,99816.28
2023-01-12T03:29:25.539Z,99827.78
2023-01-12T03:31:52.319Z,99816.97
2023-01-12T03:34:18.949Z,99815.59
2023-01-12T03:37:10.350Z,99824.28
2023-01-12T03:39:43.155Z,99810.69
2023-01-12T03:42:22.237Z,99816.25
2023-01-12T03:44:56.477Z,99801.00
2023-01-12T03:47:26.991Z,99803.06
2023-01-12T03:50:03.450Z,99796.69
2023-01-12T03:52:31.034Z,99799.72
2023-01-12T03:54:59.476Z,99805.13
2023-01-12T03:57:26.677Z,99805.16
2023-01-12T03:59:53.769Z,99806.50
2023-01-12T04:02:20.382Z,99805.00
2023-01-12T04:04:46.802Z,99799.28
2023-01-12T04:07:13.211Z,99801.50
2023-01-12T04:09:39.576Z,99797.63
2023-01-12T04:12:11.923Z,99792.06
2023-01-12T04:14:40.053Z,99788.47
2023-01-12T04:17:08.009Z,99794.84
2023-01-12T04:19:34.364Z,99783.13
2023-01-12T04:22:19.354Z,99765.94
2023-01-12T04:24:45.980Z,99767.47
2023-01-12T04:27:12.410Z,99762.59
2023-01-12T04:29:38.812Z,99766.16
2023-01-12T04:32:05.547Z,99768.91
2023-01-12T04:34:31.991Z,99752.56
2023-01-12T04:36:58.352Z,99759.91
2023-01-12T04:39:24.788Z,99761.72
2023-01-12T04:41:51.166Z,99758.09
2023-01-12T04:44:17.572Z,99759.50
2023-01-12T04:46:43.944Z,99746.44
2023-01-12T04:49:10.341Z,99748.66
2023-01-12T04:51:36.708Z,99754.41
2023-01-12T04:54:03.111Z,99744.78
2023-01-12T04:56:31.021Z,99746.00
2023-01-12T04:59:01.338Z,99737.50
2023-01-12T05:01:29.436Z,99741.84
2023-01-12T05:03:57.960Z,99739.50
2023-01-12T05:06:24.740Z,99732.81
2023-01-12T05:09:09.976Z,99726.34
2023-01-12T05:11:36.332Z,99720.59
2023-01-12T05:14:03.689Z,99717.84
2023-01-12T05:16:30.326Z,99704.53
2023-01-12T05:18:57.052Z,99724.78
2023-01-12T05:21:24.397Z,99723.41
2023-01-12T05:23:53.552Z,99716.72
2023-01-12T05:26:20.322Z,99714.44
2023-01-12T05:28:50.958Z,99712.38
2023-01-12T05:31:19.416Z,99706.06
2023-01-12T05:33:46.241Z,99704.75
2023-01-12T05:36:14.700Z,99710.31
2023-01-12T05:38:41.134Z,99698.06
2023-01-12T05:41:10.166Z,99704.75
2023-01-12T05:43:51.528Z,99699.59
2023-01-12T05:46:22.902Z,99704.19
2023-01-12T05:48:50.120Z,99699.75
2023-01-12T05:51:18.804Z,99709.72
2023-01-12T05:53:45.560Z,99711.16
2023-01-12T05:56:17.796Z,99703.47
2023-01-12T05:58:52.818Z,99708.34
2023-01-12T06:01:19.859Z,99698.72
2023-01-12T06:03:54.034Z,99689.66
2023-01-12T06:06:21.887Z,99695.84
2023-01-12T06:08:50.648Z,99689.19
2023-01-12T06:11:37.707Z,99698.19
2023-01-12T06:14:04.979Z,99703.06
2023-01-12T06:16:31.698Z,99704.53
2023-01-12T06:18:58.208Z,99695.53
2023-01-12T06:21:24.832Z,99707.22
2023-01-12T06:23:51.895Z,99702.47
2023-01-12T06:26:18.277Z,99698.59
2023-01-12T06:28:44.708Z,99702.44
2023-01-12T06:31:13.017Z,99696.31
2023-01-12T06:33:40.068Z,99698.88
2023-01-12T06:36:06.958Z,99694.13
2023-01-12T06:38:35.148Z,99691.91
2023-01-12T06:41:06.631Z,99695.25
2023-01-12T06:43:33.244Z,99693.00
2023-01-12T06:45:59.899Z,99696.78
2023-01-12T06:48:26.369Z,99694.94
2023-01-12T06:51:05.800Z,99697.09
2023-01-12T06:53:32.193Z,99687.66
2023-01-12T06:55:58.576Z,99696.31
2023-01-12T06:58:24.949Z,99692.13
2023-01-12T07:00:51.451Z,99705.22
2023-01-12T07:03:19.106Z,99697.41
2023-01-12T07:05:46.118Z,99705.91
2023-01-12T07:08:15.973Z,99707.97
2023-01-12T07:10:42.838Z,99715.91
2023-01-12T07:13:09.205Z,99720.78
2023-01-12T07:15:35.648Z,99707.38
2023-01-12T07:18:02.281Z,99703.50
2023-01-12T07:20:28.754Z,99699.59
2023-01-12T07:22:55.993Z,99693.66
2023-01-12T07:25:23.126Z,99692.28
2023-01-12T07:27:51.694Z,99690.09
2023-01-12T07:30:21.802Z,99690.94
2023-01-12T07:32:49.372Z,99707.84
2023-01-12T07:35:16.553Z,99703.94
2023-01-12T07:37:50.485Z,99707.81
2023-01-12T07:40:17.504Z,99706.38
2023-01-12T07:42:43.847Z,99708.03
2023-01-12T07:45:10.730Z,99710.38
2023-01-12T07:47:37.111Z,99715.06
2023-01-12T07:50:04.096Z,99705.63
2023-01-12T07:52:30.920Z,99706.22
2023-01-12T07:54:57.587Z,99694.09
2023-01-12T07:57:24.201Z,99707.59
2023-01-12T07:59:50.580Z,99704.28
2023-01-12T08:02:17.140Z,99707.28
2023-01-12T08:04:44.541Z,99701.16
2023-01-12T08:07:11.381Z,99689.91
2023-01-12T08:09:37.926Z,99695.09
2023-01-12T08:12:05.984Z,99693.66
2023-01-12T08:14:37.224Z,99684.69
2023-01-12T08:17:08.032Z,99686.09
2023-01-12T08:19:40.881Z,99684.75
2023-01-12T08:22:12.555Z,99674.66
2023-01-12T08:24:48.160Z,99682.78
2023-01-12T08:27:18.298Z,99677.56
2023-01-12T08:29:48.578Z,99669.31
2023-01-12T08:32:18.353Z,99674.75
2023-01-12T08:34:48.603Z,99664.44
2023-01-12T08:37:18.697Z,99669.31
2023-01-12T08:39:45.764Z,99665.44
2023-01-12T08:42:12.552Z,99668.59
2023-01-12T08:44:39.010Z,99673.00
2023-01-12T08:47:16.002Z,99671.09
2023-01-12T08:49:42.367Z,99652.59
2023-01-12T08:52:09.009Z,99653.91
2023-01-12T08:54:36.042Z,99649.97
2023-01-12T08:57:02.406Z,99649.00
2023-01-12T08:59:28.758Z,99641.69
2023-01-12T09:01:55.244Z,99655.63
2023-01-12T09:04:21.876Z,99647.69
2023-01-12T09:06:48.640Z,99642.25
2023-01-12T09:09:17.261Z,99645.34
2023-01-12T09:11:44.467Z,99638.78
2023-01-12T09:14:12.401Z,99634.84
2023-01-12T09:16:39.415Z,99639.16
2023-01-12T09:19:06.191Z,99636.88
2023-01-12T09:21:35.710Z,99630.56
2023-01-12T09:24:02.036Z,99646.47
2023-01-12T09:26:32.158Z,99622.34
2023-01-12T09:29:04.264Z,99624.13
2023-01-12T09:31:33.106Z,99627.59
2023-01-12T09:34:00.117Z,99617.38
2023-01-12T09:36:28.789Z,99589.84
2023-01-12T09:38:55.687Z,99602.44
2023-01-12T09:41:49.956Z,99589.56
2023-01-12T09:44:36.870Z,99593.88
2023-01-12T09:47:07.610Z,99576.31
2023-01-12T09:49:40.142Z,99568.41
2023-01-12T09:52:24.635Z,99574.06
2023-01-12T09:54:52.981Z,99577.84
2023-01-12T09:57:57.110Z,99582.66
2023-01-12T10:00:23.655Z,99570.38
2023-01-12T10:02:54.960Z,99572.38
2023-01-12T10:05:39.851Z,99574.03
2023-01-12T10:08:14.937Z,99579.66
2023-01-12T10:10:49.853Z,99573.19
2023-01-12T10:13:16.955Z,99572.38
2023-01-12T10:15:51.457Z,99564.75
2023-01-12T10:18:26.881Z,99560.44
2023-01-12T10:20:53.894Z,99562.13
2023-01-12T10:23:24.630Z,99570.25
2023-01-12T10:26:02.612Z,99562.47
2023-01-12T10:28:33.197Z,99564.75
2023-01-12T10:31:00.546Z,99541.72
2023-01-12T10:33:29.828Z,99554.69
2023-01-12T10:36:01.324Z,99542.91
2023-01-12T10:38:31.301Z,99519.72
2023-01-12T10:41:17.178Z,99526.50
2023-01-12T10:43:46.829Z,99540.28
2023-01-12T10:46:21.378Z,99538.28
2023-01-12T10:48:54.264Z,99532.50
2023-01-12T10:51:28.477Z,99505.47
2023-01-12T10:54:09.106Z,99483.97
2023-01-12T10:56:39.315Z,99515.44
2023-01-12T10:59:21.481Z,99496.22
2023-01-12T11:01:51.127Z,99477.53
2023-01-12T11:04:23.635Z,99492.75
2023-01-12T11:07:05.001Z,99462.75
2023-01-12T11:09:32.009Z,99441.56
2023-01-12T11:12:03.626Z,99459.78
2023-01-12T11:14:33.163Z,99464.09
2023-01-12T11:17:19.684Z,99448.88
2023-01-12T11:19:48.711Z,99468.41
2023-01-12T11:22:27.420Z,99452.16
2023-01-12T11:25:11.521Z,99454.50
2023-01-12T11:27:43.903Z,99450.19
2023-01-12T11:30:20.862Z,99456.00
2023-01-12T11:32:57.648Z,99460.13
2023-01-12T11:35:37.146Z,99457.47
2023-01-12T11:38:11.053Z,99449.22
2023-01-12T11:40:38.834Z,99446.22
2023-01-12T11:43:41.967Z,99448.38
2023-01-12T11:46:18.951Z,99437.25
2023-01-12T11:48:55.045Z,99440.44
2023-01-12T11:51:21.486Z,99433.28
2023-01-12T11:53:47.844Z,99424.72
2023-01-12T11:56:23.521Z,99421.72
2023-01-12T11:58:54.861Z,99424.84
2023-01-12T12:01:35.659Z,99415.94
2023-01-12T12:04:21.360Z,99411.94
2023-01-12T12:07:07.898Z,99410.44
2023-01-12T12:09:49.546Z,99410.44
2023-01-12T12:12:39.534Z,99403.84
2023-01-12T12:15:25.625Z,99413.75
2023-01-12T12:18:19.983Z,99414.75
2023-01-12T12:20:49.463Z,99420.03
2023-01-12T12:23:54.557Z,99414.75
2023-01-12T12:26:30.713Z,99413.06
2023-01-12T12:29:12.066Z,99408.78
2023-01-12T12:31:57.267Z,99416.19
2023-01-12T12:35:01.345Z,99417.03
2023-01-12T12:37:41.698Z,99393.81
2023-01-12T12:40:27.057Z,99418.47
2023-01-12T12:43:28.867Z,99412.47
2023-01-12T12:46:28.067Z,99412.13
2023-01-12T12:49:05.291Z,99402.38
2023-01-12T12:51:34.648Z,99412.25
2023-01-12T12:54:03.995Z,99408.63
2023-01-12T12:56:33.277Z,99400.66
2023-01-12T12:59:04.187Z,99404.63
2023-01-12T13:01:30.587Z,99384.28
2023-01-12T13:03:59.166Z,99378.84
2023-01-12T13:06:35.648Z,99371.09
2023-01-12T13:09:22.230Z,99369.56
2023-01-12T13:12:08.817Z,99386.56
2023-01-12T13:14:36.763Z,99378.81
2023-01-12T13:17:25.881Z,99372.88
2023-01-12T13:20:08.294Z,99348.56
2023-01-12T13:22:39.919Z,99356.19
2023-01-12T13:25:15.603Z,99341.78
2023-01-12T13:28:00.832Z,99364.94
2023-01-12T13:30:30.302Z,99336.00
2023-01-12T13:33:16.696Z,99336.50
2023-01-12T13:35:46.305Z,99349.38
2023-01-12T13:38:20.191Z,99337.47
2023-01-12T13:40:55.933Z,99356.97
2023-01-12T13:43:34.257Z,99365.28
2023-01-12T13:46:12.650Z,99364.91
2023-01-12T13:48:44.446Z,99365.22
2023-01-12T13:51:22.748Z,99359.63
2023-01-12T13:54:04.213Z,99368.56
2023-01-12T13:56:31.373Z,99362.94
2023-01-12T13:59:03.814Z,99368.22
2023-01-12T14:01:33.674Z,99365.22
2023-01-12T14:04:25.439Z,99360.84
2023-01-12T14:07:23.071Z,99366.25
2023-01-12T14:10:19.086Z,99376.66
2023-01-12T14:13:07.575Z,99369.19
2023-01-12T14:15:56.364Z,99377.16
2023-01-12T14:18:29.164Z,99365.59
2023-01-12T14:20:58.134Z,99377.34
2023-01-12T14:23:28.739Z,99371.19
2023-01-12T14:26:03.976Z,99370.25
2023-01-12T14:28:31.264Z,99364.19
2023-01-12T14:30:58.231Z,99369.94
2023-01-12T14:33:30.654Z,99371.91
2023-01-12T14:36:06.856Z,99370.88
2023-01-12T14:38:36.954Z,99377.53
2023-01-12T14:41:27.558Z,99380.63
2023-01-12T14:44:13.166Z,99376.84
2023-01-12T14:46:48.075Z,99370.59
2023-01-12T14:49:31.071Z,99374.59
2023-01-12T14:52:16.312Z,99368.63
2023-01-12T14:54:43.415Z,99367.31
2023-01-12T14:57:27.562Z,99374.72
2023-01-12T14:59:54.158Z,99362.97
2023-01-12T15:02:31.050Z,99365.31
2023-01-12T15:05:09.535Z,99364.13
2023-01-12T15:07:53.716Z,99370.78
2023-01-12T15:10:20.057Z,99362.34
2023-01-12T15:12:54.067Z,99362.66
2023-01-12T15:15:22.206Z,99373.63
2023-01-12T15:18:08.756Z,99365.34
2023-01-12T15:20:56.878Z,99358.06
2023-01-12T15:23:44.782Z,99359.88
2023-01-12T15:26:11.160Z,99349.13
2023-01-12T15:28:37.574Z,99358.75
2023-01-12T15:31:03.968Z,99340.22
2023-01-12T15:33:30.620Z,99363.75
2023-01-12T15:35:58.221Z,99354.78
2023-01-12T15:38:28.272Z,99371.69
2023-01-12T15:40:54.755Z,99368.69
2023-01-12T15:43:21.111Z,99363.75
2023-01-12T15:45:47.786Z,99364.75
2023-01-12T15:48:14.407Z,99371.03
2023-01-12T15:50:44.153Z,99363.41
2023-01-12T15:53:17.267Z,99370.38
2023-01-12T15:55:43.669Z,99374.00
2023-01-12T15:58:10.164Z,99366.91
2023-01-12T16:00:37.018Z,99362.63
2023-01-12T16:03:04.197Z,99369.41
2023-01-12T16:05:30.595Z,99363.78
2023-01-12T16:07:57.181Z,99363.78
2023-01-12T16:10:24.104Z,99354.81
2023-01-12T16:12:50.652Z,99350.38
2023-01-12T16:15:22.819Z,99357.16
2023-01-12T16:17:50.148Z,99361.13
2023-01-12T16:20:19.094Z,99353.66
2023-01-12T16:22:46.840Z,99363.75
2023-01-12T16:25:14.252Z,99368.38
2023-01-12T16:27:40.696Z,99363.78
2023-01-12T16:30:12.347Z,99364.91
2023-01-12T16:32:38.817Z,99359.13
2023-01-12T16:35:05.395Z,99365.28
2023-01-12T16:37:33.292Z,99369.06
2023-01-12T16:40:00.909Z,99352.00
2023-01-12T16:42:27.922Z,99341.44
2023-01-12T16:44:54.407Z,99353.00
2023-01-12T16:47:20.927Z,99337.63
2023-01-12T16:49:49.390Z,99347.56
2023-01-12T16:52:17.549Z,99339.78
2023-01-12T16:54:44.026Z,99338.63
2023-01-12T16:57:12.383Z,99342.91
2023-01-12T16:59:39.084Z,99347.41
2023-01-12T17:02:08.219Z,99342.94
2023-01-12T17:04:36.886Z,99350.88
2023-01-12T17:07:05.481Z,99342.28
2023-01-12T17:09:34.540Z,99339.78
2023-01-12T17:12:01.117Z,99340.78
2023-01-12T17:14:28.254Z,99335.34
2023-01-12T17:16:57.841Z,99346.75
2023-01-12T17:19:27.645Z,99347.22
2023-01-12T17:21:54.881Z,99337.97
2023-01-12T17:24:22.172Z,99335.63
2023-01-12T17:26:51.201Z,99332.34
2023-01-12T17:29:18.056Z,99310.84
2023-01-12T17:31:45.050Z,99324.72
2023-01-12T17:34:13.121Z,99327.34
2023-01-12T17:36:40.098Z,99332.16
2023-01-12T17:39:06.747Z,99326.88
2023-01-12T17:41:51.745Z,99329.53
2023-01-12T17:44:18.264Z,99325.38
2023-01-12T17:46:45.219Z,99323.41
2023-01-12T17:49:12.464Z,99317.75
2023-01-12T17:51:39.759Z,99322.25
2023-01-12T17:54:07.889Z,99333.81
2023-01-12T17:56:35.423Z,99323.41
2023-01-12T17:59:03.103Z,99311.78
2023-01-12T18:01:32.004Z,99314.78
2023-01-12T18:03:59.769Z,99312.13
2023-01-12T18:06:27.233Z,99303.50
2023-01-12T18:08:56.418Z,99305.16
2023-01-12T18:11:23.642Z,99302.84
2023-01-12T18:13:50.082Z,99296.19
2023-01-12T18:16:17.065Z,99309.44
2023-01-12T18:18:44.114Z,99311.09
2023-01-12T18:21:14.132Z,99306.78
2023-01-12T18:23:43.004Z,99313.41
2023-01-12T18:26:12.388Z,99303.63
2023-01-12T18:28:38.823Z,99311.41
2023-01-12T18:31:10.780Z,99303.97
2023-01-12T18:33:37.822Z,99325.31
2023-01-12T18:36:31.331Z,99318.19
2023-01-12T18:38:57.726Z,99319.22
2023-01-12T18:41:42.793Z,99326.47
2023-01-12T18:44:09.647Z,99306.78
2023-01-12T18:47:00.327Z,99313.25
2023-01-12T18:49:29.214Z,99317.84
2023-01-12T18:52:14.552Z,99308.75
2023-01-12T18:54:45.252Z,99308.09
2023-01-12T18:57:13.920Z,99294.53
2023-01-12T18:59:41.904Z,99306.44
2023-01-12T19:02:11.624Z,99309.28
2023-01-12T19:04:50.088Z,99306.09
2023-01-12T19:07:17.457Z,99305.97
2023-01-12T19:09:43.948Z,99304.94
2023-01-12T19:12:10.300Z,99308.41
2023-01-12T19:14:55.167Z,99304.13
2023-01-12T19:17:27.386Z,99303.47
2023-01-12T19:19:54.340Z,99296.50
2023-01-12T19:22:39.574Z,99308.09
2023-01-12T19:25:25.500Z,99284.56
2023-01-12T19:28:10.450Z,99296.03
2023-01-12T19:30:38.122Z,99296.84
2023-01-12T19:33:22.484Z,99299.78
2023-01-12T19:35:48.937Z,99301.44
2023-01-12T19:38:15.472Z,99301.91
2023-01-12T19:40:49.573Z,99289.16
2023-01-12T19:43:20.286Z,99293.78
2023-01-12T19:45:48.613Z,99302.41
2023-01-12T19:48:17.049Z,99292.66
2023-01-12T19:50:44.840Z,99303.56
2023-01-12T19:53:18.556Z,99307.72
2023-01-12T19:55:45.660Z,99292.28
2023-01-12T19:58:12.807Z,99298.44
2023-01-12T20:00:43.356Z,99309.31
2023-01-12T20:03:20.981Z,99300.69
2023-01-12T20:05:50.961Z,99291.88
2023-01-12T20:08:22.689Z,99296.53
2023-01-12T20:10:54.175Z,99289.78
2023-01-12T20:13:20.569Z,99284.78
2023-01-12T20:15:48.820Z,99280.09
2023-01-12T20:18:16.290Z,99296.06
2023-01-12T20:20:43.167Z,99280.50
2023-01-12T20:23:10.992Z,99274.56
2023-01-12T20:25:39.376Z,99277.81
2023-01-12T20:28:06.259Z,99266.13
2023-01-12T20:30:37.965Z,99278.84
2023-01-12T20:33:06.068Z,99280.47
2023-01-12T20:35:32.850Z,99280.47
2023-01-12T20:37:59.255Z,99284.47
2023-01-12T20:40:25.675Z,99282.78
2023-01-12T20:42:52.110Z,99268.88
2023-01-12T20:45:19.014Z,99276.47
2023-01-12T20:47:45.517Z,99267.81
2023-01-12T20:50:14.164Z,99262.88
2023-01-12T20:52:41.505Z,99273.97
2023-01-12T20:55:08.463Z,99273.13
2023-01-12T20:57:38.644Z,99274.47
2023-01-12T21:00:09.704Z,99264.16
2023-01-12T21:02:40.520Z,99258.53
2023-01-12T21:05:07.859Z,99270.13
2023-01-12T21:07:34.273Z,99264.09
2023-01-12T21:10:00.709Z,99260.81
2023-01-12T21:12:27.782Z,99275.50
2023-01-12T21:14:54.582Z,99251.00
2023-01-12T21:17:21.288Z,99254.06
2023-01-12T21:19:47.902Z,99261.75
2023-01-12T21:22:14.298Z,99238.25
2023-01-12T21:24:40.736Z,99262.09
2023-01-12T21:27:07.108Z,99250.31
2023-01-12T21:29:34.120Z,99250.00
2023-01-12T21:32:01.279Z,99249.75
2023-01-12T21:34:27.901Z,99243.47
2023-01-12T21:36:54.329Z,99203.03
2023-01-12T21:39:21.947Z,99226.91
2023-01-12T21:42:06.927Z,99241.09
2023-01-12T21:44:33.354Z,99223.03
2023-01-12T21:46:59.968Z,99227.22
2023-01-12T21:49:26.396Z,99210.81
2023-01-12T21:51:52.785Z,99207.63
2023-01-12T21:54:19.206Z,99205.72
2023-01-12T21:56:45.562Z,99205.03
2023-01-12T21:59:12.552Z,99217.31
2023-01-12T22:01:39.136Z,99201.03
2023-01-12T22:04:05.659Z,99213.28
2023-01-12T22:06:32.123Z,99210.28
2023-01-12T22:08:58.851Z,99221.72
2023-01-12T22:11:25.430Z,99198.25
2023-01-12T22:13:51.846Z,99213.22
2023-01-12T22:16:18.434Z,99212.94
2023-01-12T22:18:49.554Z,99212.94
2023-01-12T22:21:17.796Z,99208.59
2023-01-12T22:23:44.540Z,99211.69
2023-01-12T22:26:12.898Z,99208.84
2023-01-12T22:28:41.375Z,99201.03
2023-01-12T22:31:13.911Z,99204.19
2023-01-12T22:33:44.600Z,99211.03
2023-01-12T22:36:10.968Z,99209.06
2023-01-12T22:38:37.339Z,99210.38
2023-01-12T22:41:08.383Z,99217.13
2023-01-12T22:43:40.642Z,99212.41
2023-01-12T22:46:19.083Z,99215.44
2023-01-12T22:48:49.672Z,99223.66
2023-01-12T22:51:17.312Z,99221.19
2023-01-12T22:53:44.279Z,99204.91
2023-01-12T22:56:12.031Z,99209.47
2023-01-12T22:58:39.610Z,99206.09
2023-01-12T23:01:09.175Z,99196.66
2023-01-12T23:03:37.179Z,99191.28
2023-01-12T23:06:05.049Z,99185.06
2023-01-12T23:08:32.359Z,99192.16
2023-01-12T23:11:07.669Z,99192.88
2023-01-12T23:13:35.345Z,99181.41
2023-01-12T23:16:05.266Z,99181.09
2023-01-12T23:18:33.546Z,99174.09
2023-01-12T23:21:04.237Z,99168.28
2023-01-12T23:23:31.098Z,99185.69
2023-01-12T23:26:03.106Z,99180.38
2023-01-12T23:28:30.253Z,99172.72
2023-01-12T23:31:05.601Z,99176.03
2023-01-12T23:33:32.437Z,99176.25
2023-01-12T23:36:08.184Z,99182.06
2023-01-12T23:38:35.133Z,99173.78
2023-01-12T23:41:21.395Z,99162.94
2023-01-12T23:43:49.893Z,99169.06
2023-01-12T23:46:17.484Z,99167.72
2023-01-12T23:48:44.085Z,99154.81
2023-01-12T23:51:10.792Z,99166.22
2023-01-12T23:53:37.311Z,99173.53
2023-01-12T23:56:06.305Z,99157.16
2023-01-12T23:58:33.751Z,99147.09
